Latest Weather Observations for Mount Ginini

IDN60801

Issued at 7:32 am EST Saturday 18 August 2018 (issued every 10 minutes, with the page automatically refreshed every 10 minutes)

About weather observations | Map of weather stations | Latest weather observations for NSW | Other Formats
Station Details ID: 070349 Name: MOUNT GININI AWS Lat: -35.53 Lon: 148.77 Height: 1760.0 m
Data from the previous 72 hours. | See also: Recent months at Mount Ginini
Date/Time
EST
Temp
°C
App
Temp
°C
Dew
Point
°C
Rel
Hum
%
Delta-T
°C
Wind Press
QNH
hPa
Press
MSL
hPa
Rain since
9am
mm
Dir  Spd
km/h
Gust
km/h
Spd
kts
Gust
kts
18/07:30am -1.9 -8.7 -2.2 98 0.0 W 24 46 13 25 - - 0.2
18/07:00am -1.9 -8.8 -2.3 97 0.1 W 24 48 13 26 - - 0.0
18/06:30am -1.6 -8.0 -2.0 97 0.1 W 22 54 12 29 - - 0.0
18/06:00am -1.5 -8.3 -1.9 97 0.1 W 24 44 13 24 - - 0.0
18/05:30am -1.7 -8.5 -2.1 97 0.1 W 24 48 13 26 - - 0.0
18/05:00am -1.6 -8.4 -2.2 96 0.1 W 24 52 13 28 - - 0.0
18/04:45am -1.5 -9.1 -2.1 96 0.2 W 28 46 15 25 - - 0.0
18/04:30am -1.6 -8.4 -2.2 96 0.1 W 24 39 13 21 - - 0.0
18/04:00am -1.7 -8.6 -2.3 96 0.1 W 24 43 13 23 - - 0.0
18/03:30am -1.6 -9.2 -2.2 96 0.1 W 28 48 15 26 - - 0.0
18/03:00am -1.8 -9.4 -2.4 96 0.1 W 28 46 15 25 - - 0.0
18/02:30am -1.8 -9.4 -2.4 96 0.1 W 28 54 15 29 - - 0.0
18/02:00am -1.9 -9.5 -2.5 96 0.1 W 28 48 15 26 - - 0.0
18/01:44am -1.8 -9.4 -2.4 96 0.1 W 28 54 15 29 - - 0.0
18/01:30am -1.7 -8.9 -2.3 96 0.1 W 26 48 14 26 - - 0.0
18/01:01am -1.6 -9.2 -2.2 96 0.1 W 28 52 15 28 - - 0.0
18/01:00am -1.6 -8.8 -2.2 96 0.1 W 26 52 14 28 - - 0.0
18/12:32am -1.7 -9.3 -2.3 96 0.1 W 28 50 15 27 - - 0.0
18/12:30am -1.8 -9.4 -2.4 96 0.1 W 28 44 15 24 - - 0.0
18/12:00am -1.9 -9.5 -2.5 96 0.1 W 28 50 15 27 - - 0.0
 
Date/Time
EST
Temp
°C
App
Temp
°C
Dew
Point
°C
Rel
Hum
%
Delta-T
°C
Wind Press
QNH
hPa
Press
MSL
hPa
Rain since
9am
mm
Dir  Spd
km/h
Gust
km/h
Spd
kts
Gust
kts
17/11:39pm -1.9 -9.5 -2.5 96 0.1 W 28 48 15 26 - - 0.0
17/11:30pm -2.0 -8.9 -2.4 97 0.1 W 24 44 13 24 - - 0.0
17/11:00pm -2.2 -8.7 -2.6 97 0.0 W 22 41 12 22 - - 0.0
17/10:30pm -2.4 -8.6 -2.8 97 0.0 W 20 33 11 18 - - 0.0
17/10:00pm -2.2 -8.3 -2.6 97 0.0 W 20 39 11 21 - - 0.0
17/09:30pm -2.1 -8.6 -2.5 97 0.0 WSW 22 37 12 20 - - 0.0
17/09:00pm -2.2 -8.1 -2.6 97 0.0 WSW 19 35 10 19 - - 0.0
17/08:30pm -2.1 -8.6 -2.6 96 0.1 W 22 35 12 19 - - 0.0
17/08:00pm -2.4 -9.0 -2.9 96 0.1 W 22 41 12 22 - - 0.0
17/07:30pm -2.1 -8.6 -2.6 96 0.1 W 22 43 12 23 - - 0.0
17/07:00pm -2.0 -8.9 -2.7 95 0.2 W 24 43 13 23 - - 0.0
17/06:30pm -2.2 -9.9 -2.7 96 0.1 W 28 48 15 26 - - 0.0
17/06:27pm -2.1 -9.8 -2.6 96 0.1 W 28 52 15 28 - - 0.0
17/06:00pm -2.1 -9.0 -2.8 95 0.2 W 24 43 13 23 - - 0.0
17/05:30pm -1.8 -7.9 -2.6 94 0.2 W 20 35 11 19 - - 0.0
17/05:00pm -1.6 -8.2 -3.0 90 0.4 W 22 43 12 23 - - 0.0
17/04:30pm -1.4 -7.5 -3.6 85 0.7 W 19 33 10 18 - - 0.0
17/04:00pm -1.2 -7.2 -3.1 87 0.6 WSW 19 37 10 20 - - 0.0
17/03:30pm -1.1 -5.9 -2.7 89 0.5 W 13 30 7 16 - - 0.0
17/03:00pm -0.9 -6.6 -3.6 82 1.0 WSW 17 32 9 17 - - 0.0
17/02:30pm -0.5 -5.5 -3.9 78 1.2 W 13 28 7 15 - - 0.0
17/02:00pm -0.2 -6.0 -4.4 73 1.5 W 17 32 9 17 - - 0.0
17/01:30pm -0.2 -5.6 -4.4 73 1.5 W 15 28 8 15 - - 0.0
17/01:00pm -0.1 -4.8 -4.7 71 1.7 WSW 11 26 6 14 - - 0.0
17/12:30pm -0.8 -7.3 -5.8 69 1.7 WSW 20 35 11 19 - - 0.0
17/12:00pm -0.9 -6.8 -5.7 70 1.6 WSW 17 35 9 19 - - 0.0
17/11:30am -0.5 -6.0 -5.1 71 1.6 WSW 15 35 8 19 - - 0.0
17/11:00am -0.4 -5.9 -5.8 67 1.9 WSW 15 33 8 18 - - 0.0
17/10:30am -0.4 -6.9 -5.6 68 1.8 WSW 20 37 11 20 - - 0.0
17/10:00am -0.9 -8.2 -6.2 67 1.8 WSW 24 48 13 26 - - 0.0
17/09:30am -1.6 -7.9 -6.2 71 1.5 WSW 19 35 10 19 - - 0.0
17/09:00am -2.7 -10.0 -6.3 76 1.1 SW 24 37 13 20 - - 0.0
17/08:30am -3.4 -10.3 -6.3 80 0.8 SW 22 41 12 22 - - 0.0
17/08:00am -3.9 -11.9 -6.0 85 0.5 SW 28 43 15 23 - - 0.0
17/07:50am -4.0 -12.0 -5.8 87 0.4 SW 28 48 15 26 - - 0.0
17/07:30am -4.2 -11.4 -5.3 92 0.2 SW 24 39 13 21 - - 0.0
17/07:00am -4.5 -11.3 -5.3 94 0.1 WSW 22 33 12 18 - - 0.0
17/06:30am -4.6 -11.4 -5.4 94 0.1 WSW 22 37 12 20 - - 0.0
17/06:00am -4.6 -11.4 -5.4 94 0.1 SW 22 37 12 20 - - 0.0
17/05:30am -4.6 -11.0 -5.4 94 0.1 WSW 20 33 11 18 - - 0.0
17/05:00am -4.6 -10.9 -5.4 94 0.1 SW 19 32 10 17 - - 0.0
17/04:30am -4.5 -10.7 -5.3 94 0.1 SW 19 33 10 18 - - 0.0
17/04:00am -4.4 -10.6 -5.1 95 0.0 SW 19 30 10 16 - - 0.0
17/03:30am -4.4 -10.6 -5.1 95 0.0 SW 19 30 10 16 - - 0.0
17/03:00am -4.4 -10.8 -4.9 96 0.0 SW 20 33 11 18 - - 0.0
17/02:30am -4.2 -10.0 -4.7 96 0.0 SW 17 30 9 16 - - 0.0
17/02:00am -4.4 -11.6 -4.9 96 0.0 SW 24 33 13 18 - - 0.0
17/01:30am -4.4 -11.6 -4.9 96 0.0 SW 24 37 13 20 - - 0.0
17/01:00am -4.3 -11.4 -4.8 96 0.0 SW 24 35 13 19 - - 0.0
17/12:30am -4.3 -11.1 -4.8 96 0.0 SW 22 35 12 19 - - 0.0
17/12:00am -4.1 -11.2 -4.6 96 0.0 SW 24 35 13 19 - - 0.0
 
Date/Time
EST
Temp
°C
App
Temp
°C
Dew
Point
°C
Rel
Hum
%
Delta-T
°C
Wind Press
QNH
hPa
Press
MSL
hPa
Rain since
9am
mm
Dir  Spd
km/h
Gust
km/h
Spd
kts
Gust
kts
16/11:30pm -4.0 -10.2 -4.5 96 0.0 SW 19 32 10 17 - - 0.0
16/11:00pm -3.5 -11.3 -4.0 96 0.0 SW 28 43 15 23 - - 0.0
16/10:30pm -3.5 -9.8 -3.9 97 0.0 SW 20 30 11 16 - - 0.0
16/10:00pm -3.6 -9.9 -4.1 96 0.0 SW 20 35 11 19 - - 0.0
16/09:30pm -3.6 -9.7 -4.1 96 0.0 SW 19 28 10 15 - - 0.0
16/09:00pm -3.8 -9.9 -4.3 96 0.0 SW 19 28 10 15 - - 0.0
16/08:30pm -3.8 -10.9 -4.3 96 0.0 SW 24 37 13 20 - - 0.0
16/08:00pm -3.7 -11.2 -4.4 95 0.1 SW 26 41 14 22 - - 0.0
16/07:36pm -3.4 -11.2 -4.2 94 0.1 SW 28 46 15 25 - - 0.0
16/07:30pm -3.4 -10.9 -4.2 94 0.1 SW 26 43 14 23 - - 0.0
16/07:00pm -3.1 -10.1 -3.9 94 0.1 SW 24 35 13 19 - - 0.0
16/06:30pm -3.0 -9.3 -3.8 94 0.1 WSW 20 33 11 18 - - 0.0
16/06:00pm -2.5 -9.5 -3.5 93 0.2 WSW 24 39 13 21 - - 0.0
16/05:30pm -1.9 -8.2 -3.8 87 0.6 WSW 20 37 11 20 - - 0.0
16/05:00pm -1.2 -6.8 -3.1 87 0.6 WSW 17 28 9 15 - - 0.0
16/04:30pm -0.4 -6.7 -4.1 76 1.3 WSW 20 35 11 19 - - 0.0
16/04:00pm 0.3 -5.8 -4.3 71 1.7 WSW 19 39 10 21 - - 0.0
16/03:30pm 0.4 -5.4 -4.6 69 1.8 WSW 17 37 9 20 - - 0.0
16/03:00pm 0.7 -4.6 -3.9 71 1.7 WSW 15 30 8 16 - - 0.0
16/02:30pm 1.4 -5.0 -5.1 62 2.4 W 20 37 11 20 - - 0.0
16/02:00pm 1.4 -5.1 -5.5 60 2.6 W 20 37 11 20 - - 0.0
16/01:30pm 0.5 -5.8 -5.7 63 2.2 WSW 19 37 10 20 - - 0.0
16/01:00pm 1.5 -3.9 -4.3 65 2.2 W 15 30 8 16 - - 0.0
16/12:30pm 1.5 -4.3 -4.8 63 2.4 W 17 30 9 16 - - 0.0
16/12:00pm 1.4 -3.6 -4.0 67 2.1 WSW 13 33 7 18 - - 0.0
16/11:30am 0.8 -3.8 -3.8 71 1.8 WSW 11 26 6 14 - - 0.0
16/11:00am 0.1 -4.8 -3.8 75 1.5 WSW 13 24 7 13 - - 0.0
16/10:30am -0.7 -6.4 -3.4 82 1.0 SW 17 33 9 18 - - 0.0
16/10:00am -1.2 -6.7 -2.3 92 0.4 SW 17 32 9 17 - - 0.0
16/09:30am -1.4 -7.5 -2.4 93 0.3 SW 20 33 11 18 - - 0.0
16/09:00am -1.8 -7.7 -2.6 94 0.2 WSW 19 33 10 18 - - 0.4
16/08:30am -2.5 -7.8 -3.2 95 0.1 WSW 15 28 8 15 - - 0.4
16/08:00am -3.0 -9.1 -3.5 96 0.0 WSW 19 35 10 19 - - 0.4
16/07:30am -2.8 -9.4 -3.3 96 0.0 WSW 22 48 12 26 - - 0.4
16/07:00am -2.5 -10.2 -2.9 97 0.0 WSW 28 54 15 29 - - 0.4
16/06:31am -2.3 -10.0 -2.7 97 0.0 WSW 28 56 15 30 - - 0.4
16/06:30am -2.2 -9.5 -2.6 97 0.0 WSW 26 54 14 29 - - 0.4
16/06:01am -2.0 -9.6 -2.4 97 0.1 WSW 28 48 15 26 - - 0.4
16/06:00am -2.0 -9.2 -2.4 97 0.1 W 26 48 14 26 - - 0.4
16/05:30am -1.9 -10.3 -2.3 97 0.1 W 32 65 17 35 - - 0.4
16/05:00am -1.5 -9.9 -2.1 96 0.2 W 32 80 17 43 - - 0.4
16/04:30am -1.1 -9.4 -1.5 97 0.1 WSW 32 69 17 37 - - 0.4
16/04:00am -1.2 -9.5 -1.6 97 0.1 WSW 32 63 17 34 - - 0.4
16/03:30am -0.8 -8.6 -1.1 98 0.1 WSW 30 57 16 31 - - 0.4
16/03:00am -0.8 -9.0 -1.1 98 0.1 WSW 32 67 17 36 - - 0.4
16/02:30am -0.7 -8.9 -1.0 98 0.1 WSW 32 63 17 34 - - 0.4
16/02:00am -0.7 -9.1 -1.0 98 0.1 WSW 33 57 18 31 - - 0.4
16/01:33am -0.3 -7.7 -0.6 98 0.1 WSW 28 54 15 29 - - 0.2
16/01:30am -0.2 -7.2 -0.5 98 0.1 WSW 26 54 14 29 - - 0.2
16/01:00am 0.0 -7.7 -0.3 98 0.1 WSW 30 70 16 38 - - 0.2
16/12:30am 0.6 -7.4 0.3 98 0.1 WSW 32 78 17 42 - - 0.2
16/12:21am 0.8 -7.8 0.5 98 0.1 WSW 35 78 19 42 - - 0.2
16/12:03am 0.8 -6.4 0.5 98 0.1 W 28 54 15 29 - - 0.2
16/12:00am 0.8 -6.0 0.5 98 0.1 W 26 46 14 25 - - 0.2
 
Date/Time
EST
Temp
°C
App
Temp
°C
Dew
Point
°C
Rel
Hum
%
Delta-T
°C
Wind Press
QNH
hPa
Press
MSL
hPa
Rain since
9am
mm
Dir  Spd
km/h
Gust
km/h
Spd
kts
Gust
kts
15/11:37pm 0.7 -6.5 0.4 98 0.1 W 28 54 15 29 - - 0.2
15/11:30pm 0.7 -5.8 0.4 98 0.1 W 24 48 13 26 - - 0.2
15/11:00pm 0.7 -6.6 0.3 97 0.2 W 28 54 15 29 - - 0.2
15/10:30pm 0.7 -7.5 0.1 96 0.2 W 33 59 18 32 - - 0.0
15/10:00pm 1.0 -6.7 0.1 94 0.4 W 30 57 16 31 - - 0.0
15/09:30pm 1.6 -5.6 0.6 93 0.4 W 28 52 15 28 - - 0.0
15/09:09pm 2.0 -5.3 -0.2 85 0.9 W 28 56 15 30 - - 0.0
15/09:00pm 2.0 -4.2 -0.6 83 1.1 W 22 41 12 22 - - 0.0
15/08:30pm 2.4 -5.1 -1.2 77 1.5 WNW 28 54 15 29 - - 0.0
15/08:10pm 2.3 -5.1 -1.0 79 1.3 WNW 28 52 15 28 - - 0.0
15/08:00pm 2.3 -4.4 -0.8 80 1.3 WNW 24 54 13 29 - - 0.0
15/07:30pm 2.3 -5.1 -0.4 82 1.1 WNW 28 54 15 29 - - 0.0
15/07:00pm 2.2 -5.1 -0.1 85 1.0 WNW 28 52 15 28 - - 0.0
15/06:48pm 2.2 -5.0 0.4 88 0.8 WNW 28 52 15 28 - - 0.0
15/06:30pm 2.0 -4.0 1.0 93 0.4 WNW 22 39 12 21 - - 0.0
15/06:00pm 1.9 -4.1 1.0 94 0.4 WNW 22 37 12 20 - - 0.0
15/05:30pm 1.8 -4.2 0.9 94 0.4 WNW 22 41 12 22 - - 0.0
15/05:03pm 2.1 -5.0 1.2 94 0.4 WNW 28 63 15 34 - - 0.0
15/05:00pm 1.7 -4.7 0.8 94 0.4 WNW 24 48 13 26 - - 0.0
15/04:30pm 1.5 -4.2 0.8 95 0.3 WNW 20 41 11 22 - - 0.0
15/04:00pm 1.2 -4.9 0.5 95 0.3 W 22 43 12 23 - - 0.0
15/03:30pm 1.2 -4.9 0.5 95 0.3 W 22 41 12 22 - - 0.0
15/03:00pm 0.9 -5.6 0.2 95 0.3 W 24 50 13 27 - - 0.0
15/02:30pm 0.8 -6.1 -0.1 94 0.4 W 26 46 14 25 - - 0.0
15/02:00pm 1.5 -4.2 0.3 92 0.5 W 20 41 11 22 - - 0.0
15/01:30pm 2.1 -4.6 -1.2 79 1.3 W 24 46 13 25 - - 0.0
15/01:00pm 2.7 -4.5 -1.8 72 1.8 W 26 52 14 28 - - 0.0
15/12:30pm 3.3 -3.5 -1.8 69 2.1 W 24 57 13 31 - - 0.0
15/12:00pm 2.7 -5.6 -1.8 72 1.8 W 32 59 17 32 - - 0.0
15/11:30am 1.9 -6.0 -1.9 76 1.5 W 30 56 16 30 - - 0.0
15/11:22am 1.9 -5.6 -1.5 78 1.4 W 28 56 15 30 - - 0.0
15/11:00am 2.3 -4.8 -1.3 77 1.5 W 26 48 14 26 - - 0.0
15/10:40am 2.4 -5.1 -1.6 75 1.6 W 28 56 15 30 - - 0.0
15/10:30am 2.3 -4.1 -1.7 75 1.6 W 22 48 12 26 - - 0.0
15/10:00am 2.2 -4.4 -0.2 84 1.0 W 24 52 13 28 - - 0.0
15/09:30am 1.8 -5.5 0.0 88 0.7 W 28 59 15 32 - - 0.0
15/09:00am 1.3 -5.9 0.4 94 0.4 W 28 59 15 32 - - 0.0
15/08:30am 0.9 -7.7 0.2 95 0.3 W 35 65 19 35 - - 0.0
15/08:00am -0.1 -8.5 -0.7 96 0.2 W 33 67 18 36 - - 0.0

Other Formats:

Comma delimited format used in spreadsheet applications
http://www.bom.gov.au/fwo/IDN60801/IDN60801.95925.axf

JavaScript Object Notation format (JSON) in row-major order
http://www.bom.gov.au/fwo/IDN60801/IDN60801.95925.json